createdAt,value
2022-12-14T00:02:43.786Z,16.80
2022-12-14T00:05:46.299Z,16.80
2022-12-14T00:08:49.746Z,16.80
2022-12-14T00:11:51.745Z,16.80
2022-12-14T00:14:53.748Z,16.80
2022-12-14T00:17:55.856Z,16.90
2022-12-14T00:21:04.715Z,16.90
2022-12-14T00:24:07.679Z,16.90
2022-12-14T00:27:10.629Z,16.90
2022-12-14T00:30:14.469Z,16.90
2022-12-14T00:33:16.499Z,17.00
2022-12-14T00:36:19.464Z,17.00
2022-12-14T00:39:21.496Z,17.00
2022-12-14T00:42:23.480Z,17.00
2022-12-14T00:45:25.524Z,17.00
2022-12-14T00:48:28.241Z,17.00
2022-12-14T00:51:30.513Z,17.00
2022-12-14T00:54:32.540Z,17.00
2022-12-14T00:57:34.537Z,17.10
2022-12-14T01:00:36.806Z,17.10
2022-12-14T01:03:39.293Z,17.10
2022-12-14T01:06:41.418Z,17.10
2022-12-14T01:09:43.627Z,17.10
2022-12-14T01:12:45.813Z,17.10
2022-12-14T01:15:48.068Z,17.10
2022-12-14T01:18:50.264Z,17.10
2022-12-14T01:21:53.485Z,17.20
2022-12-14T01:24:55.573Z,17.10
2022-12-14T01:27:57.634Z,17.10
2022-12-14T01:31:14.964Z,16.80
2022-12-14T01:34:17.476Z,16.70
2022-12-14T01:37:19.516Z,16.60
2022-12-14T01:40:21.512Z,16.60
2022-12-14T01:43:23.799Z,16.50
2022-12-14T01:46:44.188Z,16.60
2022-12-14T01:50:19.488Z,16.50
2022-12-14T01:53:22.818Z,16.50
2022-12-14T01:56:25.843Z,16.50
2022-12-14T01:59:32.547Z,16.50
2022-12-14T02:02:38.588Z,16.50
2022-12-14T02:05:49.220Z,16.50
2022-12-14T02:08:53.353Z,16.50
2022-12-14T02:12:07.406Z,16.50
2022-12-14T02:15:10.659Z,16.50
2022-12-14T02:18:18.351Z,16.50
2022-12-14T02:21:29.635Z,16.50
2022-12-14T02:25:01.967Z,16.50
2022-12-14T02:28:10.751Z,16.40
2022-12-14T02:31:12.750Z,16.40
2022-12-14T02:34:23.668Z,16.40
2022-12-14T02:37:57.688Z,16.40
2022-12-14T02:41:38.583Z,16.50
2022-12-14T02:44:58.460Z,16.50
2022-12-14T02:48:33.092Z,16.50
2022-12-14T02:51:41.103Z,16.50
2022-12-14T02:54:56.271Z,16.50
2022-12-14T02:58:12.832Z,16.60
2022-12-14T03:01:18.919Z,16.60
2022-12-14T03:04:21.008Z,16.60
2022-12-14T03:07:48.765Z,16.60
2022-12-14T03:10:58.041Z,16.60
2022-12-14T03:14:08.275Z,16.70
2022-12-14T03:17:19.642Z,16.70
2022-12-14T03:20:25.919Z,16.80
2022-12-14T03:23:33.843Z,16.90
2022-12-14T03:26:56.828Z,16.90
2022-12-14T03:30:12.392Z,16.90
2022-12-14T03:33:19.341Z,17.00
2022-12-14T03:36:37.888Z,17.00
2022-12-14T03:39:42.600Z,17.10
2022-12-14T03:42:59.042Z,17.10
2022-12-14T03:46:35.726Z,17.10
2022-12-14T03:49:50.639Z,17.10
2022-12-14T03:53:08.017Z,17.10
2022-12-14T03:56:20.143Z,17.10
2022-12-14T03:59:35.185Z,17.10
2022-12-14T04:03:02.362Z,17.10
2022-12-14T04:06:08.601Z,17.10
2022-12-14T04:09:19.696Z,17.10
2022-12-14T04:13:03.582Z,17.10
2022-12-14T04:16:30.714Z,17.00
2022-12-14T04:19:49.303Z,17.00
2022-12-14T04:23:43.244Z,17.00
2022-12-14T04:26:52.733Z,17.00
2022-12-14T04:29:56.917Z,17.00
2022-12-14T04:33:31.023Z,17.10
2022-12-14T04:36:44.872Z,17.10
2022-12-14T04:39:55.179Z,17.10
2022-12-14T04:43:10.059Z,17.10
2022-12-14T04:46:14.020Z,17.10
2022-12-14T04:49:36.047Z,17.10
2022-12-14T04:52:45.422Z,17.10
2022-12-14T04:56:01.452Z,17.00
2022-12-14T04:59:04.198Z,17.10
2022-12-14T05:02:22.019Z,17.10
2022-12-14T05:05:37.968Z,17.00
2022-12-14T05:08:43.099Z,17.10
2022-12-14T05:12:01.393Z,17.10
2022-12-14T05:15:37.849Z,17.10
2022-12-14T05:18:39.951Z,17.10
2022-12-14T05:21:47.814Z,17.10
2022-12-14T05:24:49.865Z,17.10
2022-12-14T05:27:52.472Z,17.20
2022-12-14T05:30:54.472Z,17.20
2022-12-14T05:33:56.496Z,17.20
2022-12-14T05:36:58.529Z,17.20
2022-12-14T05:40:00.650Z,17.20
2022-12-14T05:43:06.782Z,17.20
2022-12-14T05:46:11.948Z,17.20
2022-12-14T05:49:14.307Z,17.20
2022-12-14T05:52:16.674Z,17.10
2022-12-14T05:55:18.688Z,17.10
2022-12-14T05:58:20.704Z,17.10
2022-12-14T06:01:24.197Z,17.00
2022-12-14T06:04:26.486Z,17.00
2022-12-14T06:07:28.560Z,16.90
2022-12-14T06:10:30.855Z,16.90
2022-12-14T06:13:32.881Z,16.80
2022-12-14T06:16:35.765Z,16.70
2022-12-14T06:19:37.746Z,16.70
2022-12-14T06:22:45.850Z,16.60
2022-12-14T06:25:54.853Z,16.60
2022-12-14T06:28:58.076Z,16.60
2022-12-14T06:32:01.657Z,16.50
2022-12-14T06:35:04.028Z,16.50
2022-12-14T06:38:06.012Z,16.50
2022-12-14T06:41:09.093Z,16.50
2022-12-14T06:44:14.709Z,16.50
2022-12-14T06:47:17.895Z,16.50
2022-12-14T06:50:19.930Z,16.50
2022-12-14T06:53:21.933Z,16.60
2022-12-14T06:56:26.565Z,16.60
2022-12-14T06:59:28.655Z,16.60
2022-12-14T07:02:31.337Z,16.70
2022-12-14T07:05:33.900Z,16.70
2022-12-14T07:08:38.419Z,16.70
2022-12-14T07:11:40.584Z,16.60
2022-12-14T07:14:43.835Z,16.60
2022-12-14T07:17:45.850Z,16.60
2022-12-14T07:21:10.095Z,16.60
2022-12-14T07:24:12.111Z,16.60
2022-12-14T07:27:14.329Z,16.60
2022-12-14T07:30:16.479Z,16.50
2022-12-14T07:33:18.449Z,16.50
2022-12-14T07:36:21.802Z,16.60
2022-12-14T07:39:23.838Z,16.50
2022-12-14T07:42:25.958Z,16.60
2022-12-14T07:45:27.936Z,16.50
2022-12-14T07:48:30.489Z,16.50
2022-12-14T07:51:36.342Z,16.60
2022-12-14T07:54:38.656Z,16.60
2022-12-14T07:57:40.647Z,16.70
2022-12-14T08:00:42.699Z,16.70
2022-12-14T08:03:47.576Z,16.80
2022-12-14T08:06:49.819Z,16.80
2022-12-14T08:09:51.876Z,16.90
2022-12-14T08:12:53.862Z,17.10
2022-12-14T08:15:57.035Z,17.30
2022-12-14T08:19:00.343Z,17.40
2022-12-14T08:22:02.500Z,17.60
2022-12-14T08:25:04.793Z,17.90
2022-12-14T08:28:07.016Z,18.20
2022-12-14T08:31:20.636Z,18.40
2022-12-14T08:34:23.055Z,18.50
2022-12-14T08:37:25.212Z,18.60
2022-12-14T08:40:27.325Z,18.90
2022-12-14T08:43:29.991Z,19.40
2022-12-14T08:46:34.528Z,20.00
2022-12-14T08:49:36.623Z,20.70
2022-12-14T08:52:38.913Z,20.80
2022-12-14T08:55:41.020Z,20.80
2022-12-14T08:58:44.988Z,20.60
2022-12-14T09:01:47.783Z,20.50
2022-12-14T09:04:49.989Z,20.30
2022-12-14T09:07:52.311Z,20.10
2022-12-14T09:10:54.727Z,19.70
2022-12-14T09:13:58.202Z,19.40
2022-12-14T09:17:01.336Z,19.20
2022-12-14T09:20:04.819Z,19.00
2022-12-14T09:23:06.907Z,18.80
2022-12-14T09:26:11.175Z,18.70
2022-12-14T09:29:18.174Z,18.50
2022-12-14T09:32:20.400Z,18.40
2022-12-14T09:35:22.689Z,18.30
2022-12-14T09:38:24.674Z,18.20
2022-12-14T09:41:35.540Z,18.10
2022-12-14T09:44:46.262Z,18.00
2022-12-14T09:47:56.991Z,18.00
2022-12-14T09:50:59.145Z,17.90
2022-12-14T09:54:08.492Z,17.80
2022-12-14T09:57:41.311Z,17.80
2022-12-14T10:01:17.355Z,17.70
2022-12-14T10:04:54.885Z,17.60
2022-12-14T10:08:11.657Z,17.50
2022-12-14T10:11:33.141Z,17.40
2022-12-14T10:15:13.931Z,17.40
2022-12-14T10:18:58.273Z,17.40
2022-12-14T10:22:14.056Z,17.20
2022-12-14T10:25:25.749Z,17.20
2022-12-14T10:29:01.474Z,17.10
2022-12-14T10:32:19.574Z,17.00
2022-12-14T10:35:34.526Z,17.00
2022-12-14T10:39:02.596Z,17.00
2022-12-14T10:42:29.582Z,16.90
2022-12-14T10:45:56.781Z,16.90
2022-12-14T10:49:09.865Z,16.90
2022-12-14T10:52:18.824Z,16.60
2022-12-14T10:55:23.059Z,16.10
2022-12-14T10:58:25.075Z,16.00
2022-12-14T11:01:27.862Z,15.90
2022-12-14T11:04:56.481Z,15.90
2022-12-14T11:07:58.606Z,16.80
2022-12-14T11:11:25.750Z,18.00
2022-12-14T11:14:28.057Z,18.30
2022-12-14T11:17:39.252Z,18.40
2022-12-14T11:21:05.830Z,18.60
2022-12-14T11:24:20.531Z,19.20
2022-12-14T11:27:22.697Z,19.90
2022-12-14T11:30:24.970Z,20.00
2022-12-14T11:33:43.583Z,20.00
2022-12-14T11:36:46.813Z,19.70
2022-12-14T11:39:59.083Z,19.30
2022-12-14T11:43:04.731Z,19.00
2022-12-14T11:46:07.697Z,18.80
2022-12-14T11:49:37.916Z,18.80
2022-12-14T11:52:43.205Z,18.60
2022-12-14T11:55:54.464Z,18.50
2022-12-14T11:58:57.422Z,18.40
2022-12-14T12:02:15.560Z,18.30
2022-12-14T12:05:21.980Z,18.30
2022-12-14T12:08:30.298Z,18.30
2022-12-14T12:11:34.781Z,18.30
2022-12-14T12:14:38.944Z,18.10
2022-12-14T12:17:44.172Z,18.10
2022-12-14T12:20:58.709Z,18.20
2022-12-14T12:24:25.365Z,18.30
2022-12-14T12:27:28.724Z,18.30
2022-12-14T12:30:36.174Z,18.30
2022-12-14T12:33:50.460Z,18.40
2022-12-14T12:37:24.644Z,18.50
2022-12-14T12:40:33.313Z,18.40
2022-12-14T12:43:42.134Z,18.40
2022-12-14T12:47:38.493Z,18.40
2022-12-14T12:50:43.749Z,18.40
2022-12-14T12:54:01.128Z,18.50
2022-12-14T12:57:05.372Z,18.50
2022-12-14T13:00:08.148Z,18.40
2022-12-14T13:03:23.914Z,18.40
2022-12-14T13:06:34.827Z,18.40
2022-12-14T13:09:48.875Z,18.40
2022-12-14T13:12:55.591Z,18.40
2022-12-14T13:16:13.596Z,18.40
2022-12-14T13:19:52.194Z,18.60
2022-12-14T13:22:59.471Z,18.70
2022-12-14T13:26:41.237Z,18.80
2022-12-14T13:29:59.060Z,19.10
2022-12-14T13:33:19.373Z,19.20
2022-12-14T13:36:51.948Z,19.40
2022-12-14T13:40:19.606Z,19.50
2022-12-14T13:44:02.709Z,19.70
2022-12-14T13:47:13.699Z,19.70
2022-12-14T13:50:51.262Z,19.60
2022-12-14T13:54:03.004Z,19.40
2022-12-14T13:57:06.745Z,19.40
2022-12-14T14:00:47.560Z,19.40
2022-12-14T14:03:54.809Z,19.30
2022-12-14T14:07:23.306Z,19.20
2022-12-14T14:10:32.961Z,19.10
2022-12-14T14:13:38.762Z,19.10
2022-12-14T14:16:49.933Z,19.10
2022-12-14T14:20:33.425Z,19.00
2022-12-14T14:23:36.539Z,18.90
2022-12-14T14:26:57.264Z,18.70
2022-12-14T14:29:59.412Z,18.70
2022-12-14T14:33:36.280Z,18.70
2022-12-14T14:36:36.041Z,18.70
2022-12-14T14:39:56.596Z,18.80
2022-12-14T14:43:25.736Z,18.80
2022-12-14T14:46:38.779Z,18.80
2022-12-14T14:49:43.770Z,18.80
2022-12-14T14:52:57.725Z,18.70
2022-12-14T14:56:05.779Z,18.60
2022-12-14T14:59:19.999Z,18.60
2022-12-14T15:02:29.560Z,18.60
2022-12-14T15:05:44.093Z,18.60
2022-12-14T15:09:05.337Z,18.60
2022-12-14T15:12:37.938Z,18.50
2022-12-14T15:15:44.678Z,18.50
2022-12-14T15:18:47.103Z,18.50
2022-12-14T15:21:55.583Z,18.60
2022-12-14T15:25:01.925Z,18.50
2022-12-14T15:28:10.148Z,18.50
2022-12-14T15:31:12.234Z,18.50
2022-12-14T15:34:18.591Z,18.50
2022-12-14T15:37:28.640Z,18.40
2022-12-14T15:40:32.313Z,18.40
2022-12-14T15:43:34.387Z,18.30
2022-12-14T15:46:40.357Z,18.30
2022-12-14T15:49:42.404Z,18.20
2022-12-14T15:52:45.689Z,18.10
2022-12-14T15:56:00.191Z,18.10
2022-12-14T15:59:13.836Z,18.00
2022-12-14T16:02:23.693Z,18.00
2022-12-14T16:05:27.725Z,18.00
2022-12-14T16:08:32.444Z,18.00
2022-12-14T16:11:45.945Z,17.90
2022-12-14T16:14:58.783Z,17.90
2022-12-14T16:18:03.439Z,17.90
2022-12-14T16:21:05.848Z,18.00
2022-12-14T16:24:33.994Z,17.90
2022-12-14T16:27:41.109Z,17.80
2022-12-14T16:31:01.203Z,17.80
2022-12-14T16:34:23.658Z,17.80
2022-12-14T16:37:34.049Z,17.70
2022-12-14T16:40:39.737Z,17.70
2022-12-14T16:43:42.372Z,17.50
2022-12-14T16:47:04.829Z,17.50
2022-12-14T16:50:40.105Z,17.50
2022-12-14T16:53:52.207Z,17.40
2022-12-14T16:57:02.259Z,17.40
2022-12-14T17:00:20.012Z,17.30
2022-12-14T17:03:23.922Z,17.20
2022-12-14T17:06:39.417Z,17.00
2022-12-14T17:09:41.419Z,16.80
2022-12-14T17:12:46.583Z,16.80
2022-12-14T17:15:59.396Z,16.70
2022-12-14T17:19:04.932Z,16.60
2022-12-14T17:22:15.810Z,16.50
2022-12-14T17:25:18.209Z,16.40
2022-12-14T17:28:38.394Z,16.40
2022-12-14T17:31:44.659Z,16.30
2022-12-14T17:34:52.071Z,16.30
2022-12-14T17:37:54.207Z,16.20
2022-12-14T17:40:56.632Z,16.10
2022-12-14T17:43:58.711Z,16.10
2022-12-14T17:47:00.715Z,16.10
2022-12-14T17:50:02.767Z,16.10
2022-12-14T17:53:05.208Z,16.10
2022-12-14T17:56:07.332Z,16.00
2022-12-14T17:59:09.595Z,16.00
2022-12-14T18:02:24.201Z,15.80
2022-12-14T18:05:26.485Z,15.80
2022-12-14T18:08:28.578Z,15.80
2022-12-14T18:11:31.626Z,15.80
2022-12-14T18:14:34.553Z,15.80
2022-12-14T18:17:36.888Z,15.80
2022-12-14T18:20:41.517Z,15.80
2022-12-14T18:23:44.905Z,15.80
2022-12-14T18:26:50.321Z,15.80
2022-12-14T18:29:53.596Z,15.80
2022-12-14T18:32:56.927Z,15.80
2022-12-14T18:35:59.007Z,15.70
2022-12-14T18:39:01.306Z,15.70
2022-12-14T18:42:03.681Z,15.80
2022-12-14T18:45:07.183Z,15.90
2022-12-14T18:48:10.397Z,15.90
2022-12-14T18:51:23.359Z,16.00
2022-12-14T18:54:25.402Z,16.10
2022-12-14T18:57:27.457Z,16.10
2022-12-14T19:00:35.243Z,16.20
2022-12-14T19:03:37.546Z,16.30
2022-12-14T19:06:44.513Z,16.20
2022-12-14T19:09:47.461Z,16.20
2022-12-14T19:12:51.401Z,16.10
2022-12-14T19:15:54.826Z,16.10
2022-12-14T19:18:57.712Z,16.10
2022-12-14T19:22:00.692Z,16.10
2022-12-14T19:25:03.246Z,16.10
2022-12-14T19:28:32.032Z,16.10
2022-12-14T19:31:27.595Z,16.10
2022-12-14T19:34:29.745Z,16.00
2022-12-14T19:37:32.158Z,16.00
2022-12-14T19:40:34.222Z,16.00
2022-12-14T19:43:36.418Z,15.90
2022-12-14T19:46:38.538Z,15.90
2022-12-14T19:49:40.800Z,15.90
2022-12-14T19:52:43.615Z,15.90
2022-12-14T19:55:51.168Z,15.90
2022-12-14T19:58:56.334Z,15.90
2022-12-14T20:01:58.581Z,15.90
2022-12-14T20:05:00.655Z,15.90
2022-12-14T20:08:02.696Z,15.90
2022-12-14T20:11:09.849Z,16.00
2022-12-14T20:14:13.893Z,16.00
2022-12-14T20:17:16.093Z,15.90
2022-12-14T20:20:19.180Z,15.80
2022-12-14T20:23:22.215Z,15.70
2022-12-14T20:26:25.520Z,15.60
2022-12-14T20:29:27.899Z,15.60
2022-12-14T20:32:29.922Z,15.50
2022-12-14T20:35:33.642Z,15.40
2022-12-14T20:38:35.620Z,15.30
2022-12-14T20:41:37.657Z,15.30
2022-12-14T20:44:39.607Z,15.20
2022-12-14T20:47:41.662Z,15.10
2022-12-14T20:50:44.459Z,15.10
2022-12-14T20:53:52.623Z,15.10
2022-12-14T20:56:56.479Z,15.00
2022-12-14T20:59:59.591Z,15.00
2022-12-14T21:03:03.504Z,15.00
2022-12-14T21:06:06.784Z,15.00
2022-12-14T21:09:10.311Z,15.10
2022-12-14T21:12:21.444Z,15.10
2022-12-14T21:15:23.508Z,15.10
2022-12-14T21:18:25.553Z,15.10
2022-12-14T21:21:27.724Z,15.10
2022-12-14T21:25:02.567Z,15.10
2022-12-14T21:27:52.110Z,15.10
2022-12-14T21:30:54.192Z,15.10
2022-12-14T21:33:56.190Z,15.10
2022-12-14T21:36:58.292Z,15.00
2022-12-14T21:40:03.211Z,15.00
2022-12-14T21:43:05.522Z,15.00
2022-12-14T21:46:07.624Z,15.00
2022-12-14T21:49:10.175Z,14.90
2022-12-14T21:52:19.653Z,14.80
2022-12-14T21:55:21.668Z,14.80
2022-12-14T21:58:24.812Z,14.80
2022-12-14T22:01:28.482Z,14.80
2022-12-14T22:04:39.384Z,14.80
2022-12-14T22:07:42.805Z,14.80
2022-12-14T22:10:45.253Z,14.70
2022-12-14T22:13:47.412Z,14.70
2022-12-14T22:16:50.706Z,14.70
2022-12-14T22:19:55.272Z,14.70
2022-12-14T22:22:57.512Z,14.70
2022-12-14T22:25:59.893Z,14.70
2022-12-14T22:29:01.909Z,14.70
2022-12-14T22:32:04.153Z,14.60
2022-12-14T22:35:06.631Z,14.60
2022-12-14T22:38:08.787Z,14.60
2022-12-14T22:41:13.632Z,14.60
2022-12-14T22:44:15.679Z,14.60
2022-12-14T22:47:17.788Z,14.50
2022-12-14T22:50:20.671Z,14.50
2022-12-14T22:53:22.922Z,14.50
2022-12-14T22:56:34.901Z,14.50
2022-12-14T22:59:49.881Z,14.40
2022-12-14T23:02:52.311Z,14.40
2022-12-14T23:06:00.340Z,14.40
2022-12-14T23:09:23.771Z,14.40
2022-12-14T23:12:44.294Z,14.30
2022-12-14T23:16:04.678Z,14.30
2022-12-14T23:19:25.227Z,14.30
2022-12-14T23:22:45.757Z,14.30
2022-12-14T23:26:10.062Z,14.20
2022-12-14T23:29:31.364Z,14.10
2022-12-14T23:32:52.123Z,14.10
2022-12-14T23:36:13.094Z,14.00
2022-12-14T23:39:33.640Z,14.00
2022-12-14T23:42:53.870Z,14.00
2022-12-14T23:46:14.774Z,13.90
2022-12-14T23:49:35.632Z,13.90
2022-12-14T23:52:56.576Z,13.90
2022-12-14T23:56:18.464Z,13.90
2022-12-14T23:59:39.367Z,13.90
